Time;durP1;ratioP1;P1;durP2;ratioP2;P2;SDS_P1;SDS_P2;PMS_P1;PMS_P2;Temp;Humidity;BMP_temperature;BMP_pressure;BME280_temperature;BME280_humidity;BME280_pressure;Samples;Min_cycle;Max_cycle;Signal;HPM_P1;HPM_P2
2022/10/08 00:00:11;;;;;;;10.52;5.90;;;;;;;;;;4995331;28;20361;-49
2022/10/08 00:02:38;;;;;;;17.80;6.88;;;;;;;;;;4994300;28;20363;-51
2022/10/08 00:05:06;;;;;;;11.30;5.95;;;;;;;;;;4994739;28;20399;-48
2022/10/08 00:07:35;;;;;;;13.95;6.82;;;;;;;;;;4994106;28;20184;-48
2022/10/08 00:10:06;;;;;;;11.65;6.38;;;;;;;;;;4993691;28;20078;-52
2022/10/08 00:12:47;;;;;;;13.30;6.10;;;;;;;;;;4998620;28;20061;-49
2022/10/08 00:15:16;;;;;;;13.07;6.15;;;;;;;;;;5001039;28;20133;-49
2022/10/08 00:17:44;;;;;;;11.80;5.93;;;;;;;;;;4987295;28;20046;-49
2022/10/08 00:20:11;;;;;;;13.35;6.50;;;;;;;;;;5004855;28;20042;-51
2022/10/08 00:22:40;;;;;;;13.27;6.78;;;;;;;;;;4996180;28;20050;-50
2022/10/08 00:25:11;;;;;;;12.52;5.47;;;;;;;;;;4985233;28;20069;-53
2022/10/08 00:30:22;;;;;;;9.45;5.68;;;;;;;;;;4991772;28;20051;-53
2022/10/08 00:32:52;;;;;;;10.88;5.70;;;;;;;;;;4993120;28;20060;-49
2022/10/08 00:35:21;;;;;;;10.23;5.20;;;;;;;;;;4994574;28;20051;-49
2022/10/08 00:37:49;;;;;;;13.02;5.03;;;;;;;;;;4993088;28;20514;-52
2022/10/08 00:40:16;;;;;;;7.57;4.97;;;;;;;;;;4993976;28;20061;-52
2022/10/08 00:42:54;;;;;;;10.57;5.20;;;;;;;;;;4993723;28;20058;-49
2022/10/08 00:45:22;;;;;;;9.10;4.70;;;;;;;;;;4994359;28;20054;-48
2022/10/08 00:47:55;;;;;;;9.68;5.38;;;;;;;;;;4984718;28;20495;-50
2022/10/08 00:50:31;;;;;;;9.23;5.18;;;;;;;;;;4994214;28;20105;-49
2022/10/08 00:53:03;;;;;;;12.98;6.38;;;;;;;;;;4993147;28;20381;-49
2022/10/08 00:55:34;;;;;;;14.45;5.10;;;;;;;;;;4994059;28;20104;-50
2022/10/08 00:58:05;;;;;;;10.63;5.10;;;;;;;;;;4993150;28;20415;-49
2022/10/08 01:00:32;;;;;;;9.82;4.60;;;;;;;;;;4994169;28;20042;-49
2022/10/08 01:03:02;;;;;;;11.93;5.70;;;;;;;;;;4993794;28;20078;-51
2022/10/08 01:05:33;;;;;;;12.63;6.38;;;;;;;;;;4980806;28;20050;-50
2022/10/08 01:08:06;;;;;;;12.35;5.90;;;;;;;;;;4993919;28;20061;-48
2022/10/08 01:10:43;;;;;;;11.25;6.15;;;;;;;;;;4992670;28;20047;-49
2022/10/08 01:13:32;;;;;;;13.43;6.20;;;;;;;;;;4988819;28;20058;-49
2022/10/08 01:16:02;;;;;;;10.68;5.40;;;;;;;;;;4985605;28;20051;-50
2022/10/08 01:18:42;;;;;;;9.88;5.57;;;;;;;;;;5000435;28;20356;-49
2022/10/08 01:21:12;;;;;;;9.70;4.88;;;;;;;;;;4993699;28;20050;-49
2022/10/08 01:23:54;;;;;;;14.68;6.70;;;;;;;;;;4993295;28;20755;-50
2022/10/08 01:26:38;;;;;;;11.38;5.70;;;;;;;;;;4993399;28;20061;-50
2022/10/08 01:29:14;;;;;;;12.13;5.63;;;;;;;;;;4981118;28;20058;-48
2022/10/08 01:31:45;;;;;;;13.63;6.10;;;;;;;;;;4993460;28;20061;-49
2022/10/08 01:34:22;;;;;;;11.48;5.85;;;;;;;;;;4993588;28;20046;-50
2022/10/08 01:36:51;;;;;;;9.35;5.22;;;;;;;;;;5006843;28;20061;-49
2022/10/08 01:39:19;;;;;;;9.68;5.45;;;;;;;;;;4990686;28;20066;-49
2022/10/08 01:41:57;;;;;;;9.40;5.18;;;;;;;;;;5006361;28;20068;-49
2022/10/08 01:44:34;;;;;;;8.52;5.47;;;;;;;;;;4984032;28;20101;-49
2022/10/08 01:47:03;;;;;;;11.02;5.40;;;;;;;;;;4992879;28;20491;-49
2022/10/08 01:49:42;;;;;;;8.02;4.97;;;;;;;;;;4998520;28;20455;-48
2022/10/08 01:52:17;;;;;;;9.57;5.13;;;;;;;;;;4994851;28;20069;-49
2022/10/08 01:54:48;;;;;;;10.57;4.88;;;;;;;;;;4977559;28;20054;-49
2022/10/08 01:57:18;;;;;;;12.75;6.55;;;;;;;;;;4985260;28;20384;-49
2022/10/08 01:59:49;;;;;;;11.43;6.00;;;;;;;;;;4974030;28;20114;-52
2022/10/08 02:02:20;;;;;;;9.10;5.07;;;;;;;;;;4993049;28;20137;-49
2022/10/08 02:04:52;;;;;;;10.52;5.38;;;;;;;;;;4979501;28;20061;-49
2022/10/08 02:07:22;;;;;;;10.98;5.72;;;;;;;;;;4980148;28;20050;-49
2022/10/08 02:09:58;;;;;;;11.23;4.75;;;;;;;;;;4992685;28;20046;-49
2022/10/08 02:12:24;;;;;;;9.65;5.50;;;;;;;;;;4975160;28;20051;-49
2022/10/08 02:14:57;;;;;;;9.10;4.30;;;;;;;;;;4992893;28;20452;-48
2022/10/08 02:17:40;;;;;;;10.57;5.07;;;;;;;;;;4983593;28;20052;-49
2022/10/08 02:20:25;;;;;;;6.93;3.90;;;;;;;;;;4985309;28;20054;-50
2022/10/08 02:23:03;;;;;;;9.57;4.78;;;;;;;;;;4992463;28;20056;-51
2022/10/08 02:25:40;;;;;;;10.23;5.22;;;;;;;;;;4992896;28;20054;-49
2022/10/08 02:28:16;;;;;;;9.65;4.50;;;;;;;;;;4991491;28;20137;-49
2022/10/08 02:30:51;;;;;;;8.82;5.70;;;;;;;;;;4983302;28;20082;-51
2022/10/08 02:33:21;;;;;;;9.82;5.60;;;;;;;;;;4985999;28;20402;-51
2022/10/08 02:35:58;;;;;;;9.32;5.15;;;;;;;;;;4973607;28;20062;-49
2022/10/08 02:38:34;;;;;;;9.32;4.70;;;;;;;;;;4983430;28;20061;-49
2022/10/08 02:41:11;;;;;;;10.90;5.60;;;;;;;;;;4973415;28;20693;-52
2022/10/08 02:43:41;;;;;;;10.90;5.32;;;;;;;;;;4976256;28;20566;-49
2022/10/08 02:46:22;;;;;;;8.40;5.00;;;;;;;;;;4973395;28;20058;-50
2022/10/08 02:48:54;;;;;;;10.70;5.75;;;;;;;;;;4972665;28;20046;-49
2022/10/08 02:51:26;;;;;;;9.00;5.13;;;;;;;;;;4976192;28;20145;-50
2022/10/08 02:53:56;;;;;;;12.85;5.65;;;;;;;;;;4992585;28;20054;-48
2022/10/08 02:56:26;;;;;;;9.65;5.80;;;;;;;;;;4983329;28;20054;-48
2022/10/08 02:59:02;;;;;;;11.25;5.55;;;;;;;;;;4983721;28;20046;-52
2022/10/08 03:01:35;;;;;;;10.18;5.82;;;;;;;;;;4992418;28;20047;-48
2022/10/08 03:04:11;;;;;;;7.95;5.72;;;;;;;;;;4993611;28;20054;-51
2022/10/08 03:06:41;;;;;;;10.15;5.65;;;;;;;;;;4986473;28;20050;-50
2022/10/08 03:09:14;;;;;;;11.75;5.57;;;;;;;;;;4994255;28;20058;-48
2022/10/08 03:11:50;;;;;;;9.70;5.75;;;;;;;;;;4992512;28;20042;-48
2022/10/08 03:14:21;;;;;;;;;;;;;;;;;;4987607;28;20053;-48
2022/10/08 03:16:50;;;;;;;10.98;5.43;;;;;;;;;;4986825;28;19963;-51
2022/10/08 03:19:27;;;;;;;9.55;5.35;;;;;;;;;;4995044;28;20050;-51
2022/10/08 03:21:58;;;;;;;11.45;5.35;;;;;;;;;;4995797;28;20050;-49
2022/10/08 03:24:28;;;;;;;12.20;5.72;;;;;;;;;;4989922;28;20057;-52
2022/10/08 03:26:56;;;;;;;11.52;5.80;;;;;;;;;;4996124;28;20050;-49
2022/10/08 03:29:26;;;;;;;9.63;5.43;;;;;;;;;;4995202;28;20398;-48
2022/10/08 03:32:07;;;;;;;9.18;5.18;;;;;;;;;;5009068;28;20050;-49
2022/10/08 03:34:37;;;;;;;9.63;5.15;;;;;;;;;;5007866;28;20686;-48
2022/10/08 03:37:07;;;;;;;11.80;5.00;;;;;;;;;;4995848;28;20090;-50
2022/10/08 03:39:37;;;;;;;12.73;4.85;;;;;;;;;;4995409;28;20364;-48
2022/10/08 03:42:05;;;;;;;10.75;4.97;;;;;;;;;;4995079;28;20054;-51
2022/10/08 03:44:34;;;;;;;10.32;5.10;;;;;;;;;;4984898;28;20062;-49
2022/10/08 03:47:04;;;;;;;10.07;5.07;;;;;;;;;;4982596;28;20054;-51
2022/10/08 03:49:34;;;;;;;9.25;4.88;;;;;;;;;;4995353;28;20134;-48
2022/10/08 03:52:04;;;;;;;7.78;4.20;;;;;;;;;;4984422;28;20494;-49
2022/10/08 03:54:30;;;;;;;7.05;4.05;;;;;;;;;;5006924;28;20069;-48
2022/10/08 03:57:00;;;;;;;7.22;3.90;;;;;;;;;;4980429;28;20058;-49
2022/10/08 03:59:27;;;;;;;8.98;4.28;;;;;;;;;;4992633;28;20375;-50
2022/10/08 04:01:56;;;;;;;10.60;4.38;;;;;;;;;;4978755;28;20043;-52
2022/10/08 04:04:37;;;;;;;11.57;4.95;;;;;;;;;;4975458;28;20055;-50
2022/10/08 04:07:05;;;;;;;10.23;5.13;;;;;;;;;;4982799;28;20054;-51
2022/10/08 04:09:32;;;;;;;8.80;4.10;;;;;;;;;;4994667;28;20068;-49
2022/10/08 04:12:01;;;;;;;9.23;4.20;;;;;;;;;;4980027;28;20047;-48
2022/10/08 04:14:28;;;;;;;7.97;3.70;;;;;;;;;;4987090;28;20058;-47
2022/10/08 04:16:58;;;;;;;8.25;4.47;;;;;;;;;;4990587;28;20051;-48
2022/10/08 04:19:36;;;;;;;11.88;5.78;;;;;;;;;;4983891;28;20375;-49
2022/10/08 04:22:06;;;;;;;13.18;5.38;;;;;;;;;;4994747;28;20053;-49
2022/10/08 04:24:34;;;;;;;10.40;5.20;;;;;;;;;;4994498;28;20581;-49
2022/10/08 04:27:01;;;;;;;6.88;4.32;;;;;;;;;;4999664;28;20057;-49
2022/10/08 04:29:31;;;;;;;9.25;5.13;;;;;;;;;;4994456;28;20379;-48
2022/10/08 04:32:01;;;;;;;11.00;4.70;;;;;;;;;;5007541;28;20349;-49
2022/10/08 04:34:29;;;;;;;12.00;5.90;;;;;;;;;;4994505;28;20480;-49
2022/10/08 04:36:59;;;;;;;12.00;5.88;;;;;;;;;;4993857;28;20058;-49
2022/10/08 04:39:28;;;;;;;12.38;6.45;;;;;;;;;;4994446;28;20054;-52
2022/10/08 04:41:55;;;;;;;14.82;6.60;;;;;;;;;;4994015;28;20050;-49
2022/10/08 04:44:23;;;;;;;12.23;6.82;;;;;;;;;;4988538;28;20494;-48
2022/10/08 04:46:51;;;;;;;11.63;6.03;;;;;;;;;;4982322;28;20491;-52
2022/10/08 04:49:28;;;;;;;11.32;6.47;;;;;;;;;;4982231;28;20065;-51
2022/10/08 04:52:00;;;;;;;11.88;6.45;;;;;;;;;;4992644;28;20061;-48
2022/10/08 04:54:30;;;;;;;11.73;6.00;;;;;;;;;;4992689;28;20049;-48
2022/10/08 04:56:58;;;;;;;11.63;6.82;;;;;;;;;;4975273;28;20734;-48
2022/10/08 04:59:29;;;;;;;10.40;5.85;;;;;;;;;;4973859;28;20050;-49
2022/10/08 05:01:57;;;;;;;10.98;6.32;;;;;;;;;;4974648;28;20074;-48
2022/10/08 05:04:24;;;;;;;10.30;5.60;;;;;;;;;;4975371;28;20050;-49
2022/10/08 05:06:55;;;;;;;13.38;7.35;;;;;;;;;;4983101;28;20489;-51
2022/10/08 05:09:27;;;;;;;12.50;6.95;;;;;;;;;;4982564;28;20165;-50
2022/10/08 05:11:57;;;;;;;13.52;7.30;;;;;;;;;;4984130;28;20046;-49
2022/10/08 05:14:23;;;;;;;13.27;6.82;;;;;;;;;;4981110;28;20070;-50
2022/10/08 05:16:53;;;;;;;12.00;5.95;;;;;;;;;;4986344;28;20062;-49
2022/10/08 05:19:20;;;;;;;12.32;6.90;;;;;;;;;;4983369;28;20078;-48
2022/10/08 05:21:50;;;;;;;12.88;6.90;;;;;;;;;;4993539;28;20042;-52
2022/10/08 05:24:20;;;;;;;10.45;5.80;;;;;;;;;;4980575;28;20069;-50
2022/10/08 05:26:50;;;;;;;11.05;6.63;;;;;;;;;;4978845;28;20046;-49
2022/10/08 05:29:17;;;;;;;14.20;7.40;;;;;;;;;;4993287;28;20439;-49
2022/10/08 05:31:44;;;;;;;12.07;7.60;;;;;;;;;;4989624;28;20066;-49
2022/10/08 05:34:13;;;;;;;14.73;7.40;;;;;;;;;;4976313;28;20061;-50
2022/10/08 05:36:39;;;;;;;11.25;6.35;;;;;;;;;;4975146;28;20073;-50
2022/10/08 05:39:07;;;;;;;12.55;6.70;;;;;;;;;;4991981;28;20062;-49
2022/10/08 05:41:35;;;;;;;14.65;7.07;;;;;;;;;;4992314;28;20046;-49
2022/10/08 05:44:09;;;;;;;17.27;7.05;;;;;;;;;;4974075;28;20403;-52
2022/10/08 05:46:45;;;;;;;14.85;6.47;;;;;;;;;;4974002;28;20061;-52
2022/10/08 05:49:16;;;;;;;11.00;6.03;;;;;;;;;;4974296;28;20086;-52
2022/10/08 05:51:45;;;;;;;12.25;6.15;;;;;;;;;;4987625;28;20050;-48
2022/10/08 05:54:16;;;;;;;11.55;6.30;;;;;;;;;;5005848;28;20060;-47
2022/10/08 05:56:46;;;;;;;11.43;7.07;;;;;;;;;;4979646;28;20050;-49
2022/10/08 05:59:20;;;;;;;10.98;6.63;;;;;;;;;;4993483;28;20058;-52
2022/10/08 06:01:50;;;;;;;13.03;6.17;;;;;;;;;;4991794;28;20054;-51
2022/10/08 06:04:24;;;;;;;10.50;6.80;;;;;;;;;;4992368;28;20054;-50
2022/10/08 06:06:52;;;;;;;10.20;5.75;;;;;;;;;;4992755;28;20113;-49
2022/10/08 06:09:28;;;;;;;9.50;5.88;;;;;;;;;;4992726;28;20059;-47
2022/10/08 06:11:54;;;;;;;12.55;7.03;;;;;;;;;;4992953;28;20046;-49
2022/10/08 06:14:26;;;;;;;13.27;7.15;;;;;;;;;;4992382;28;20069;-49
2022/10/08 06:16:53;;;;;;;14.20;7.18;;;;;;;;;;4990409;28;20059;-50
2022/10/08 06:19:21;;;;;;;14.68;7.25;;;;;;;;;;4992467;28;20058;-48
2022/10/08 06:21:49;;;;;;;14.43;6.82;;;;;;;;;;4993171;28;20038;-49
2022/10/08 06:24:18;;;;;;;11.00;5.38;;;;;;;;;;4979995;28;20054;-50
2022/10/08 06:26:46;;;;;;;12.65;6.90;;;;;;;;;;4991372;28;20054;-48
2022/10/08 06:29:22;;;;;;;13.75;6.88;;;;;;;;;;4984629;28;20062;-48
2022/10/08 06:32:04;;;;;;;11.02;6.15;;;;;;;;;;4974777;28;20055;-50
2022/10/08 06:34:34;;;;;;;13.63;5.90;;;;;;;;;;4985646;28;20364;-52
2022/10/08 06:37:12;;;;;;;9.63;5.30;;;;;;;;;;4979552;28;20133;-53
2022/10/08 06:39:42;;;;;;;9.25;4.90;;;;;;;;;;4994781;28;20156;-48
2022/10/08 06:42:12;;;;;;;12.10;5.72;;;;;;;;;;4996482;28;20509;-49
2022/10/08 06:44:42;;;;;;;12.25;5.88;;;;;;;;;;4993798;28;20471;-48
2022/10/08 06:47:23;;;;;;;10.88;4.45;;;;;;;;;;4994076;28;20403;-49
2022/10/08 06:49:52;;;;;;;10.68;6.10;;;;;;;;;;4992744;28;20061;-53
2022/10/08 06:52:22;;;;;;;10.43;5.18;;;;;;;;;;4994942;28;20354;-48
2022/10/08 06:54:57;;;;;;;7.32;4.40;;;;;;;;;;5005658;28;20051;-49
2022/10/08 06:57:25;;;;;;;;;;;;;;;;;;4985486;28;20046;-52
2022/10/08 06:59:57;;;;;;;8.45;4.88;;;;;;;;;;4981088;28;19936;-50
2022/10/08 07:02:39;;;;;;;9.07;5.28;;;;;;;;;;4979171;28;20058;-52
2022/10/08 07:05:07;;;;;;;14.73;4.85;;;;;;;;;;4992630;28;20047;-51
2022/10/08 07:07:34;;;;;;;12.68;5.50;;;;;;;;;;4988254;28;20507;-48
2022/10/08 07:10:03;;;;;;;11.27;4.50;;;;;;;;;;4993415;28;20062;-50
2022/10/08 07:12:33;;;;;;;9.25;4.80;;;;;;;;;;4990190;28;20564;-48
2022/10/08 07:15:05;;;;;;;10.80;5.50;;;;;;;;;;4993255;28;20065;-49
2022/10/08 07:17:43;;;;;;;9.13;5.05;;;;;;;;;;4987903;28;20047;-49
2022/10/08 07:20:14;;;;;;;9.38;5.28;;;;;;;;;;4982584;28;20507;-49
2022/10/08 07:22:44;;;;;;;11.23;5.57;;;;;;;;;;4991121;28;20395;-48
2022/10/08 07:25:14;;;;;;;12.43;5.90;;;;;;;;;;4987635;28;20054;-49
2022/10/08 07:27:41;;;;;;;13.25;5.25;;;;;;;;;;4991325;28;20054;-49
2022/10/08 07:30:09;;;;;;;12.30;4.90;;;;;;;;;;4991978;28;20046;-49
2022/10/08 07:32:40;;;;;;;9.20;4.70;;;;;;;;;;4994355;28;20450;-52
2022/10/08 07:35:08;;;;;;;8.90;4.45;;;;;;;;;;4983058;28;20050;-50
2022/10/08 07:37:37;;;;;;;7.45;4.40;;;;;;;;;;4974420;28;20125;-49
2022/10/08 07:40:10;;;;;;;8.68;4.88;;;;;;;;;;4987997;28;20046;-50
2022/10/08 07:42:40;;;;;;;9.85;5.10;;;;;;;;;;4988190;28;20058;-49
2022/10/08 07:45:09;;;;;;;10.73;4.18;;;;;;;;;;4982767;28;20082;-49
2022/10/08 07:47:35;;;;;;;7.35;4.07;;;;;;;;;;4992630;28;20054;-49
2022/10/08 07:50:11;;;;;;;7.93;3.22;;;;;;;;;;4992101;28;20141;-50
2022/10/08 07:52:41;;;;;;;10.02;4.03;;;;;;;;;;4991904;28;20069;-49
2022/10/08 07:55:08;;;;;;;12.10;4.78;;;;;;;;;;5000379;28;20055;-50
2022/10/08 07:57:37;;;;;;;5.97;3.40;;;;;;;;;;4986886;28;20452;-50
2022/10/08 08:00:14;;;;;;;8.00;3.58;;;;;;;;;;4980302;28;20397;-50
2022/10/08 08:02:44;;;;;;;7.85;3.58;;;;;;;;;;4994492;28;20046;-50
2022/10/08 08:05:16;;;;;;;8.25;3.70;;;;;;;;;;4992932;28;20046;-52
2022/10/08 08:07:46;;;;;;;8.05;3.63;;;;;;;;;;4993196;28;20054;-50
2022/10/08 08:10:16;;;;;;;7.45;3.47;;;;;;;;;;4992525;28;20391;-50
2022/10/08 08:12:46;;;;;;;8.10;4.00;;;;;;;;;;4989875;28;20050;-51
2022/10/08 08:15:15;;;;;;;9.32;4.00;;;;;;;;;;4996335;28;20058;-51
2022/10/08 08:17:44;;;;;;;13.50;3.45;;;;;;;;;;4999775;28;20054;-50
2022/10/08 08:20:25;;;;;;;11.77;4.20;;;;;;;;;;4993765;28;20053;-50
2022/10/08 08:22:55;;;;;;;8.43;3.72;;;;;;;;;;4985555;28;20070;-49
2022/10/08 08:25:23;;;;;;;9.98;4.68;;;;;;;;;;4975894;28;20842;-50
2022/10/08 08:27:50;;;;;;;8.75;3.45;;;;;;;;;;4984224;28;20420;-50
2022/10/08 08:30:20;;;;;;;8.52;4.03;;;;;;;;;;4986581;28;20165;-51
2022/10/08 08:32:50;;;;;;;6.68;3.78;;;;;;;;;;4994553;28;20046;-51
2022/10/08 08:35:20;;;;;;;7.55;3.70;;;;;;;;;;4987027;28;20138;-51
2022/10/08 08:37:51;;;;;;;8.65;3.70;;;;;;;;;;4983813;28;20051;-53
2022/10/08 08:40:21;;;;;;;11.45;3.75;;;;;;;;;;4975802;28;20085;-52
2022/10/08 08:42:53;;;;;;;7.28;3.72;;;;;;;;;;4976212;28;20058;-51
2022/10/08 08:45:25;;;;;;;9.52;3.22;;;;;;;;;;4975311;28;20053;-51
2022/10/08 08:47:59;;;;;;;7.85;3.63;;;;;;;;;;4978750;28;20169;-49
2022/10/08 08:50:34;;;;;;;10.77;3.60;;;;;;;;;;4977346;28;20069;-50
2022/10/08 08:53:03;;;;;;;9.18;3.05;;;;;;;;;;4982166;28;20046;-49
2022/10/08 08:55:35;;;;;;;6.07;3.33;;;;;;;;;;4978667;28;20456;-49
2022/10/08 08:58:11;;;;;;;9.02;3.47;;;;;;;;;;4977832;28;20051;-49
2022/10/08 09:00:44;;;;;;;9.02;3.78;;;;;;;;;;4975977;28;20050;-50
2022/10/08 09:03:16;;;;;;;12.27;4.25;;;;;;;;;;4977559;28;20042;-49
2022/10/08 09:05:48;;;;;;;5.85;3.13;;;;;;;;;;4978712;28;20057;-52
2022/10/08 09:08:19;;;;;;;7.50;3.22;;;;;;;;;;4976626;28;20054;-51
2022/10/08 09:10:50;;;;;;;7.93;3.28;;;;;;;;;;4978889;28;20043;-49
2022/10/08 09:13:19;;;;;;;6.72;3.05;;;;;;;;;;4978504;28;20051;-49
2022/10/08 09:15:49;;;;;;;6.45;3.17;;;;;;;;;;4992417;28;20061;-49
2022/10/08 09:18:18;;;;;;;11.52;3.40;;;;;;;;;;4991350;28;20132;-49
2022/10/08 09:20:51;;;;;;;12.65;2.88;;;;;;;;;;4991151;28;20058;-50
2022/10/08 09:23:22;;;;;;;9.88;3.45;;;;;;;;;;4989925;28;20050;-49
2022/10/08 09:25:53;;;;;;;8.13;3.55;;;;;;;;;;4992769;28;20053;-49
2022/10/08 09:28:38;;;;;;;10.43;3.58;;;;;;;;;;4989547;28;20106;-48
2022/10/08 09:31:12;;;;;;;6.78;2.92;;;;;;;;;;4989233;28;20141;-48
2022/10/08 09:33:40;;;;;;;5.40;2.85;;;;;;;;;;4984253;28;20361;-49
2022/10/08 09:36:17;;;;;;;10.82;2.65;;;;;;;;;;4988133;28;20054;-49
2022/10/08 09:38:47;;;;;;;7.75;3.08;;;;;;;;;;4978470;28;20050;-50
2022/10/08 09:41:18;;;;;;;7.00;2.70;;;;;;;;;;4977515;28;20062;-50
2022/10/08 09:44:07;;;;;;;7.03;3.33;;;;;;;;;;4977120;28;20042;-49
2022/10/08 09:46:36;;;;;;;10.32;3.33;;;;;;;;;;4977949;28;20059;-49
2022/10/08 09:49:20;;;;;;;7.78;3.72;;;;;;;;;;4987065;28;20053;-50
2022/10/08 09:52:07;;;;;;;7.97;3.50;;;;;;;;;;4977431;28;20066;-50
2022/10/08 09:54:38;;;;;;;7.88;3.38;;;;;;;;;;4978263;28;20062;-51
2022/10/08 09:57:06;;;;;;;6.53;3.40;;;;;;;;;;4987891;28;20109;-51
2022/10/08 09:59:44;;;;;;;6.88;3.92;;;;;;;;;;4983620;28;20061;-48
2022/10/08 10:02:26;;;;;;;11.13;3.35;;;;;;;;;;4985504;28;20050;-48
2022/10/08 10:05:02;;;;;;;8.18;2.83;;;;;;;;;;4976778;28;20054;-50
2022/10/08 10:07:39;;;;;;;7.20;3.20;;;;;;;;;;4983819;28;20058;-47
2022/10/08 10:10:12;;;;;;;7.45;3.70;;;;;;;;;;4988300;28;20082;-47
2022/10/08 10:12:44;;;;;;;5.28;3.22;;;;;;;;;;4988050;28;20038;-47
2022/10/08 10:15:15;;;;;;;7.00;3.15;;;;;;;;;;4984414;28;20091;-50
2022/10/08 10:17:47;;;;;;;7.35;3.35;;;;;;;;;;4983812;28;20739;-51
2022/10/08 10:20:18;;;;;;;8.77;3.10;;;;;;;;;;4993447;28;20422;-50
2022/10/08 10:22:55;;;;;;;8.65;3.75;;;;;;;;;;4990457;28;20093;-50
2022/10/08 10:25:29;;;;;;;7.13;3.83;;;;;;;;;;4986158;28;20157;-49
2022/10/08 10:28:01;;;;;;;12.68;3.30;;;;;;;;;;4988768;28;20050;-50
2022/10/08 10:30:31;;;;;;;8.15;2.60;;;;;;;;;;4988676;28;20046;-50
2022/10/08 10:33:02;;;;;;;6.60;2.92;;;;;;;;;;4991352;28;20089;-49
2022/10/08 10:35:30;;;;;;;5.57;2.60;;;;;;;;;;4992357;28;20382;-50
2022/10/08 10:38:03;;;;;;;9.70;3.30;;;;;;;;;;4993292;28;20046;-50
2022/10/08 10:40:38;;;;;;;6.68;2.58;;;;;;;;;;4995578;28;20489;-50
2022/10/08 10:43:10;;;;;;;;;;;;;;;;;;4991322;28;20062;-50
2022/10/08 10:45:45;;;;;;;8.63;2.65;;;;;;;;;;4986392;28;19921;-50
2022/10/08 10:48:21;;;;;;;10.15;2.95;;;;;;;;;;4993823;28;20050;-49
2022/10/08 10:50:56;;;;;;;8.30;3.35;;;;;;;;;;4992939;28;20058;-50
2022/10/08 10:53:37;;;;;;;6.38;2.58;;;;;;;;;;4992382;28;20038;-49
2022/10/08 10:56:11;;;;;;;5.63;2.60;;;;;;;;;;4983714;28;20046;-50
2022/10/08 10:58:43;;;;;;;7.20;3.13;;;;;;;;;;4987998;28;20058;-49
2022/10/08 11:01:23;;;;;;;5.72;2.92;;;;;;;;;;4992940;28;20142;-51
2022/10/08 11:04:00;;;;;;;9.07;3.00;;;;;;;;;;4987505;28;20043;-50
2022/10/08 11:06:46;;;;;;;5.53;2.38;;;;;;;;;;4995382;28;20050;-50
2022/10/08 11:09:26;;;;;;;4.85;2.53;;;;;;;;;;4985778;28;20054;-49
2022/10/08 11:11:57;;;;;;;5.28;2.50;;;;;;;;;;4994237;28;20050;-50
2022/10/08 11:14:43;;;;;;;6.38;2.72;;;;;;;;;;4989679;28;20074;-51
2022/10/08 11:17:29;;;;;;;6.38;2.50;;;;;;;;;;4984903;28;20064;-50
2022/10/08 11:20:03;;;;;;;8.25;2.83;;;;;;;;;;4991776;28;20050;-53
2022/10/08 11:22:37;;;;;;;5.45;2.30;;;;;;;;;;4995648;28;20171;-52
2022/10/08 11:25:33;;;;;;;5.88;2.72;;;;;;;;;;4994957;28;20515;-51
2022/10/08 11:28:16;;;;;;;5.57;2.85;;;;;;;;;;4995544;28;20054;-50
2022/10/08 11:30:54;;;;;;;5.82;2.55;;;;;;;;;;4995665;28;20459;-50
2022/10/08 11:33:31;;;;;;;7.55;2.75;;;;;;;;;;5003143;28;20046;-50
2022/10/08 11:36:08;;;;;;;6.75;2.83;;;;;;;;;;4990030;28;20054;-50
2022/10/08 11:38:40;;;;;;;5.97;2.88;;;;;;;;;;4979902;28;20141;-50
2022/10/08 11:41:23;;;;;;;8.93;3.15;;;;;;;;;;4998802;28;20050;-51
2022/10/08 11:44:02;;;;;;;5.30;2.80;;;;;;;;;;4994930;28;20046;-50
2022/10/08 11:46:31;;;;;;;10.07;2.53;;;;;;;;;;4984199;28;20061;-50
2022/10/08 11:49:02;;;;;;;5.68;2.60;;;;;;;;;;4984979;28;20101;-50
2022/10/08 11:51:38;;;;;;;9.65;2.88;;;;;;;;;;4992855;28;20047;-50
2022/10/08 11:54:11;;;;;;;6.47;2.67;;;;;;;;;;5007096;28;20054;-49
2022/10/08 11:57:10;;;;;;;5.75;2.75;;;;;;;;;;5006999;28;20189;-50
2022/10/08 11:59:49;;;;;;;5.90;2.55;;;;;;;;;;4990384;28;20061;-50
2022/10/08 12:02:23;;;;;;;5.78;2.15;;;;;;;;;;4994575;28;20475;-50
2022/10/08 12:04:51;;;;;;;5.63;2.40;;;;;;;;;;4979078;28;20085;-51
2022/10/08 12:07:29;;;;;;;8.85;2.55;;;;;;;;;;4984159;28;20061;-50
2022/10/08 12:10:12;;;;;;;5.88;2.60;;;;;;;;;;4997481;28;20050;-49
2022/10/08 12:12:59;;;;;;;5.30;1.92;;;;;;;;;;4994739;28;20065;-50
2022/10/08 12:15:43;;;;;;;6.85;2.22;;;;;;;;;;4994279;28;20047;-51
2022/10/08 12:18:29;;;;;;;6.88;2.53;;;;;;;;;;4978190;28;20058;-50
2022/10/08 12:21:00;;;;;;;;;;;;;;;;;;4994108;28;20053;-50
2022/10/08 12:23:43;;;;;;;6.45;2.13;;;;;;;;;;4994429;28;20020;-50
2022/10/08 12:26:12;;;;;;;3.80;2.53;;;;;;;;;;4994903;28;20050;-49
2022/10/08 12:28:50;;;;;;;4.57;2.28;;;;;;;;;;4986346;28;20065;-50
2022/10/08 12:31:21;;;;;;;4.93;2.50;;;;;;;;;;4981667;28;20050;-50
2022/10/08 12:34:07;;;;;;;6.50;1.92;;;;;;;;;;4980783;28;20075;-49
2022/10/08 12:36:56;;;;;;;9.90;3.05;;;;;;;;;;4991810;28;20061;-51
2022/10/08 12:39:44;;;;;;;5.50;2.15;;;;;;;;;;4983070;28;20069;-49
2022/10/08 12:42:22;;;;;;;6.22;2.28;;;;;;;;;;4986789;28;20086;-50
2022/10/08 12:44:58;;;;;;;5.82;2.20;;;;;;;;;;4987120;28;20046;-49
2022/10/08 12:47:29;;;;;;;6.03;2.33;;;;;;;;;;4985628;28;20576;-49
2022/10/08 12:49:58;;;;;;;6.93;2.40;;;;;;;;;;4986764;28;20058;-50
2022/10/08 12:52:28;;;;;;;6.80;2.40;;;;;;;;;;4986080;28;20060;-47
2022/10/08 12:55:05;;;;;;;6.72;2.20;;;;;;;;;;5006737;28;20062;-50
2022/10/08 12:57:35;;;;;;;6.60;2.17;;;;;;;;;;4993967;28;20363;-50
2022/10/08 13:00:35;;;;;;;6.38;2.30;;;;;;;;;;4993631;28;20373;-50
2022/10/08 13:03:06;;;;;;;10.20;2.42;;;;;;;;;;4993093;28;20068;-50
2022/10/08 13:05:42;;;;;;;11.60;2.97;;;;;;;;;;4994186;28;20050;-52
2022/10/08 13:08:39;;;;;;;7.97;2.20;;;;;;;;;;4993841;28;20058;-50
2022/10/08 13:11:10;;;;;;;6.72;2.60;;;;;;;;;;4977592;28;20064;-54
2022/10/08 13:13:48;;;;;;;6.00;2.45;;;;;;;;;;4984548;28;20533;-49
2022/10/08 13:16:17;;;;;;;5.18;2.05;;;;;;;;;;4985949;28;20110;-50
2022/10/08 13:18:48;;;;;;;5.70;2.17;;;;;;;;;;4980943;28;20050;-52
2022/10/08 13:21:29;;;;;;;10.38;2.08;;;;;;;;;;4991645;28;20117;-51
2022/10/08 13:23:57;;;;;;;7.82;2.13;;;;;;;;;;4992837;28;20094;-50
2022/10/08 13:29:36;;;;;;;9.35;2.22;;;;;;;;;;5089154;27;20385;-50
2022/10/08 13:32:34;;;;;;;6.38;1.88;;;;;;;;;;5075719;28;20355;-50
2022/10/08 13:35:11;;;;;;;7.53;2.13;;;;;;;;;;5071947;28;20057;-50
2022/10/08 13:37:40;;;;;;;9.77;2.22;;;;;;;;;;5078566;28;20057;-50
2022/10/08 13:40:26;;;;;;;11.18;3.65;;;;;;;;;;5065371;28;20053;-50
2022/10/08 13:42:55;;;;;;;5.65;2.53;;;;;;;;;;5049007;28;20061;-50
2022/10/08 13:45:30;;;;;;;5.10;1.83;;;;;;;;;;5066377;28;20045;-51
2022/10/08 13:47:59;;;;;;;12.38;4.72;;;;;;;;;;5057808;28;20470;-50
2022/10/08 13:50:29;;;;;;;6.40;3.15;;;;;;;;;;5067600;28;20052;-50
2022/10/08 13:52:59;;;;;;;6.47;3.33;;;;;;;;;;5065877;28;20132;-52
2022/10/08 13:55:29;;;;;;;8.23;2.08;;;;;;;;;;5069208;28;20052;-50
2022/10/08 13:58:00;;;;;;;6.63;2.22;;;;;;;;;;5070921;28;20132;-50
2022/10/08 14:00:38;;;;;;;8.25;2.42;;;;;;;;;;5073781;28;20341;-50
2022/10/08 14:03:09;;;;;;;7.80;2.40;;;;;;;;;;5061590;28;20095;-48
2022/10/08 14:05:40;;;;;;;4.78;2.65;;;;;;;;;;5069491;28;20044;-50
2022/10/08 14:08:12;;;;;;;10.73;2.65;;;;;;;;;;5071209;28;20041;-53
2022/10/08 14:10:41;;;;;;;7.22;2.25;;;;;;;;;;5066861;28;20063;-51
2022/10/08 14:13:10;;;;;;;8.23;2.20;;;;;;;;;;5063582;28;20091;-50
2022/10/08 14:15:54;;;;;;;7.05;2.47;;;;;;;;;;5074462;28;20048;-53
2022/10/08 14:18:21;;;;;;;6.13;2.55;;;;;;;;;;5062404;28;20066;-52
2022/10/08 14:20:49;;;;;;;7.15;2.55;;;;;;;;;;5074065;28;20053;-51
2022/10/08 14:23:20;;;;;;;6.47;3.28;;;;;;;;;;5072364;28;20063;-50
2022/10/08 14:25:52;;;;;;;6.82;3.17;;;;;;;;;;5067525;28;20076;-49
2022/10/08 14:28:21;;;;;;;5.88;2.78;;;;;;;;;;5076205;28;20048;-49
2022/10/08 14:30:59;;;;;;;14.00;3.15;;;;;;;;;;5049006;28;20081;-50
2022/10/08 14:33:28;;;;;;;11.07;2.97;;;;;;;;;;5065013;28;20053;-49
2022/10/08 14:35:58;;;;;;;9.27;2.90;;;;;;;;;;5058779;28;20051;-50
2022/10/08 14:38:31;;;;;;;5.80;2.30;;;;;;;;;;5051529;28;20053;-50
2022/10/08 14:41:02;;;;;;;8.13;1.98;;;;;;;;;;5035434;28;20057;-50
2022/10/08 14:43:31;;;;;;;9.23;2.38;;;;;;;;;;5042686;28;20072;-50
2022/10/08 14:46:14;;;;;;;7.15;2.10;;;;;;;;;;5042622;28;20072;-50
2022/10/08 14:48:44;;;;;;;8.73;2.90;;;;;;;;;;5039615;28;20127;-52
2022/10/08 14:51:14;;;;;;;6.82;2.45;;;;;;;;;;5038382;28;20533;-50
2022/10/08 14:53:43;;;;;;;13.50;2.38;;;;;;;;;;5047145;28;20103;-50
2022/10/08 14:56:11;;;;;;;5.80;2.45;;;;;;;;;;5041152;28;20045;-51
2022/10/08 14:58:39;;;;;;;4.63;1.73;;;;;;;;;;5065372;28;20461;-50
2022/10/08 15:01:07;;;;;;;12.82;2.63;;;;;;;;;;5053481;28;20408;-50
2022/10/08 15:03:36;;;;;;;10.32;2.92;;;;;;;;;;5043346;28;20064;-49
2022/10/08 15:06:06;;;;;;;9.25;3.70;;;;;;;;;;5046505;28;20450;-50
2022/10/08 15:08:36;;;;;;;11.48;3.00;;;;;;;;;;5056643;28;20056;-51
2022/10/08 15:11:06;;;;;;;7.75;2.92;;;;;;;;;;5048065;28;20136;-51
2022/10/08 15:13:34;;;;;;;9.45;2.78;;;;;;;;;;5054790;28;20540;-53
2022/10/08 15:16:01;;;;;;;10.48;3.30;;;;;;;;;;5059417;28;20541;-50